Airfield :
LOGIN :

Register | Disclaimer

   EN    FR    IT 

 










Legend :    VFR   Marginal VFR   IFR   Intensive IFR   Very Intensive IFR
Visi :
Ceiling :
>= 8 km
>= 3000ft
5 to 8 km
1000 to 3000 ft
1500m to 5 km
500 to 1000 ft
800 to 1500m
200 to 500 ft
< 800m
< 200 ft
Symbols :   Thunderstorms  Fog  Heavy snow  Heavy precipitations  Wind > 20 kt
SIGMETs :     Misc.  Thunderstorms  Icing  Turbulence  Mountain Waves  Volcanic Ashes






- Airport Elevation : 681 ft
- IATA code : LBA


EGNM - Leeds Bradford

CURRENT METAR :
  • 210750Z 14007KT 9999 2000E VCFG SCT030 13/12 Q0994

EXPIRED METARs :
  • 210720Z 16004KT 9999 SCT030 12/12 Q0994
  • 210650Z 15004KT 9999 SCT030 12/11 Q0994
  • 210620Z 14003KT 9999 SCT030 12/11 Q0994
  • 210550Z 17004KT 9999 FEW003 SCT030 12/12 Q0994
  • 210520Z 16006KT 4000 -DZ BR SCT003 BKN005 12/12 Q0994

TAF TAF EGNM
Valid from the 21 at 06:00 until the 22 at 06:00 UTC


210555Z 2106/2206 16007KT 9999 FEW003 SCT020
TEMPO 2106/2112 3000 RA BKN003
PROB30
TEMPO 2106/2111 0200 FG OVC000
BECMG 2112/2115 27010KT
TEMPO 2112/2118 6000 RA BKN010
PROB30
TEMPO 2121/2205 8000 -RA BKN012
ATIS : +44 113 250 9696 (x2489)



MET'MAP, your aeronautical weather chart ! - Copyright ORBIFLY December 2007 - Disclaimer

ORBIFLY MET'MAP TEAM :

Programming & Development : Alexandra Zaïnal
Concept & original design : Baudouin d'Aumeries
Assistance for programming : Marc-Olivier Méhu
Technical & hardware support : Manuel Goepfert

Contact : metmap@orbifly.com




SOURCES & CREDITS :

   NOAA